Time;durP1;ratioP1;P1;durP2;ratioP2;P2;SDS_P1;SDS_P2;PMS_P1;PMS_P2;Temp;Humidity;BMP_temperature;BMP_pressure;BME280_temperature;BME280_humidity;BME280_pressure;Samples;Min_cycle;Max_cycle;Signal;HPM_P1;HPM_P2
2022/03/13 00:00:25;;;;;;;15.90;9.75;;;7.80;70.70;;;7.98;nan;100673.06;5039703;23;20251;-71
2022/03/13 00:02:54;;;;;;;19.40;10.07;;;7.70;72.60;;;8.00;nan;100663.41;5045234;28;20204;-71
2022/03/13 00:05:22;;;;;;;16.80;10.00;;;7.60;73.80;;;7.91;nan;100663.09;5051988;28;20205;-70
2022/03/13 00:07:51;;;;;;;16.73;10.23;;;7.60;74.90;;;7.82;nan;100659.31;5060622;28;20641;-71
2022/03/13 00:10:25;;;;;;;20.75;10.70;;;7.50;75.20;;;7.62;nan;100663.06;5003989;28;21249;-71
2022/03/13 00:12:52;;;;;;;18.83;10.93;;;7.40;76.10;;;7.69;nan;100656.59;5002803;28;20202;-71
2022/03/13 00:15:35;;;;;;;15.05;9.10;;;7.40;76.30;;;7.69;nan;100658.34;4996006;28;20659;-70
2022/03/13 00:18:02;;;;;;;14.95;9.27;;;7.40;76.40;;;7.74;nan;100664.13;5028135;28;20441;-70
2022/03/13 00:20:30;;;;;;;14.90;8.48;;;7.40;76.40;;;7.69;nan;100668.75;5032574;28;20229;-71
2022/03/13 00:22:58;;;;;;;14.83;8.60;;;7.30;76.40;;;7.69;nan;100661.78;5018426;28;20210;-71
2022/03/13 00:25:26;;;;;;;11.60;7.68;;;7.40;76.60;;;7.67;nan;100671.44;5035140;28;21168;-71
2022/03/13 00:27:53;;;;;;;16.15;8.27;;;7.30;76.00;;;7.59;nan;100660.69;5016869;28;20213;-71
2022/03/13 00:30:20;;;;;;;15.60;8.57;;;7.20;76.40;;;7.63;nan;100656.97;5033107;28;20225;-70
2022/03/13 00:32:47;;;;;;;16.67;8.50;;;7.30;76.60;;;7.66;nan;100658.56;5049496;28;20666;-70
2022/03/13 00:35:14;;;;;;;14.88;9.32;;;7.30;76.30;;;7.66;nan;100658.56;5035728;28;20202;-71
2022/03/13 00:37:41;;;;;;;15.05;8.68;;;7.30;76.60;;;7.68;nan;100657.53;5036272;28;20208;-71
2022/03/13 00:40:12;;;;;;;14.73;8.07;;;7.30;77.00;;;7.62;nan;100650.09;5035943;28;20237;-71
2022/03/13 00:42:39;;;;;;;16.13;7.25;;;7.30;77.40;;;7.50;nan;100653.44;5027958;28;20194;-71
2022/03/13 00:45:07;;;;;;;15.50;8.00;;;7.10;78.00;;;7.53;nan;100655.00;5030147;28;20213;-71
2022/03/13 00:47:34;;;;;;;11.98;7.95;;;7.20;78.10;;;7.49;nan;100656.97;5039963;28;20220;-71
2022/03/13 00:50:01;;;;;;;15.25;8.38;;;7.10;77.60;;;7.52;nan;100659.34;5026664;28;20728;-71
2022/03/13 00:52:28;;;;;;;13.90;8.30;;;7.20;77.70;;;7.56;nan;100660.84;5053225;28;20206;-70
2022/03/13 00:54:55;;;;;;;15.05;8.60;;;7.20;77.20;;;7.56;nan;100654.84;5021244;28;20260;-71
2022/03/13 00:57:22;;;;;;;18.73;8.43;;;7.20;77.30;;;7.48;nan;100644.03;5014309;28;20257;-70
2022/03/13 00:59:49;;;;;;;17.00;7.50;;;7.20;77.40;;;7.53;nan;100647.22;5012368;28;20610;-71
2022/03/13 01:02:16;;;;;;;12.63;7.75;;;7.20;77.40;;;7.37;nan;100647.28;5014010;28;20205;-71
2022/03/13 01:04:44;;;;;;;14.32;7.45;;;7.00;77.80;;;7.27;nan;100640.97;5035189;28;20197;-71
2022/03/13 01:07:13;;;;;;;11.50;7.22;;;7.00;78.20;;;7.28;nan;100645.25;5018608;28;20232;-71
2022/03/13 01:09:41;;;;;;;11.45;6.97;;;6.90;78.30;;;7.30;nan;100637.34;5013792;28;20225;-70
2022/03/13 01:12:10;;;;;;;12.10;6.38;;;6.90;78.60;;;7.31;nan;100639.00;4996471;28;20682;-71
2022/03/13 01:14:37;;;;;;;8.57;5.03;;;6.90;77.90;;;7.31;nan;100639.00;5007952;28;20210;-71
2022/03/13 01:17:07;;;;;;;9.65;5.65;;;7.00;77.30;;;7.28;nan;100636.59;5025021;28;20202;-72
2022/03/13 01:19:35;;;;;;;16.42;7.75;;;6.90;78.10;;;7.24;nan;100638.53;5032362;28;20629;-71
2022/03/13 01:22:03;;;;;;;9.80;5.35;;;6.90;78.20;;;7.13;nan;100634.91;5014903;28;20235;-71
2022/03/13 01:24:45;;;;;;;7.38;4.63;;;6.80;77.60;;;7.07;nan;100634.31;5016005;28;20206;-71
2022/03/13 01:27:16;;;;;;;13.52;6.78;;;6.80;77.80;;;6.98;nan;100644.41;5016696;28;20236;-71
2022/03/13 01:29:45;;;;;;;11.77;5.25;;;6.70;76.70;;;6.97;nan;100640.97;5014130;28;20233;-71
2022/03/13 01:32:13;;;;;;;8.38;5.10;;;6.60;78.60;;;6.94;nan;100645.50;5025339;28;20204;-71
2022/03/13 01:34:44;;;;;;;7.95;5.43;;;6.60;80.40;;;6.86;nan;100642.47;5017331;28;20221;-72
2022/03/13 01:37:18;;;;;;;10.85;5.18;;;6.50;77.10;;;6.78;nan;100631.72;5034144;28;20828;-71
2022/03/13 01:39:46;;;;;;;7.60;4.95;;;6.50;74.80;;;6.73;nan;100641.53;5052643;28;20237;-71
2022/03/13 01:42:13;;;;;;;10.07;5.97;;;6.40;74.00;;;6.73;nan;100628.56;5021692;28;20213;-72
2022/03/13 01:44:40;;;;;;;12.35;6.65;;;6.40;73.60;;;6.69;nan;100634.81;5008667;28;20210;-71
2022/03/13 01:47:07;;;;;;;11.18;5.50;;;6.40;72.60;;;6.69;nan;100629.63;5014179;28;20597;-71
2022/03/13 01:49:35;;;;;;;11.77;6.10;;;6.40;72.20;;;6.64;nan;100635.09;5012529;28;20218;-71
2022/03/13 01:52:02;;;;;;;8.68;5.80;;;6.40;71.90;;;6.64;nan;100627.31;5032331;28;20278;-71
2022/03/13 01:54:30;;;;;;;11.55;6.43;;;6.30;72.20;;;6.57;nan;100632.91;5031255;28;20210;-71
2022/03/13 01:57:00;;;;;;;11.13;6.50;;;6.30;72.40;;;6.54;nan;100627.91;5031609;28;20210;-71
2022/03/13 01:59:29;;;;;;;10.07;6.18;;;6.20;72.80;;;6.52;nan;100634.91;5012017;28;20590;-71
2022/03/13 02:01:57;;;;;;;13.13;6.20;;;6.20;73.10;;;6.49;nan;100625.56;5025511;28;20206;-71
2022/03/13 02:04:27;;;;;;;8.70;5.38;;;6.20;73.00;;;6.49;nan;100635.09;5051177;28;20205;-72
2022/03/13 02:06:58;;;;;;;11.65;6.25;;;6.20;74.00;;;6.41;nan;100637.28;5051012;28;20581;-71
2022/03/13 02:09:27;;;;;;;8.20;5.15;;;6.20;73.70;;;6.42;nan;100634.59;5034358;28;20286;-71
2022/03/13 02:11:55;;;;;;;7.82;4.18;;;6.10;73.40;;;6.44;nan;100637.09;5028708;28;20646;-71
2022/03/13 02:14:23;;;;;;;11.05;5.90;;;6.20;73.70;;;6.39;nan;100631.34;5014257;28;20206;-71
2022/03/13 02:16:52;;;;;;;8.38;5.05;;;6.10;73.80;;;6.38;nan;100620.13;5047754;28;20217;-71
2022/03/13 02:19:19;;;;;;;11.88;7.43;;;6.10;74.00;;;6.17;nan;100621.31;5013257;28;20236;-72
2022/03/13 02:21:51;;;;;;;14.85;7.13;;;6.00;74.50;;;6.24;nan;100618.28;5040759;28;20224;-71
2022/03/13 02:24:26;;;;;;;12.13;6.88;;;6.00;74.70;;;6.25;nan;100619.97;5019057;28;20209;-71
2022/03/13 02:27:01;;;;;;;12.90;7.18;;;6.00;74.80;;;6.19;nan;100619.47;5051735;28;20727;-71
2022/03/13 02:29:28;;;;;;;11.63;7.03;;;5.90;75.50;;;6.20;nan;100618.53;5033795;28;20216;-71
2022/03/13 02:31:58;;;;;;;12.63;6.70;;;5.90;75.90;;;6.18;nan;100616.03;5020560;28;20263;-72
2022/03/13 02:34:26;;;;;;;13.00;7.82;;;5.90;76.00;;;6.17;nan;100614.38;5023976;28;20206;-71
2022/03/13 02:37:01;;;;;;;15.90;6.85;;;5.90;76.10;;;6.10;nan;100607.00;5050026;28;20217;-72
2022/03/13 02:39:35;;;;;;;14.82;8.13;;;5.80;76.80;;;6.04;nan;100607.34;5032673;28;20294;-71
2022/03/13 02:42:05;;;;;;;13.45;7.30;;;5.80;77.30;;;6.09;nan;100606.16;5017609;28;20574;-71
2022/03/13 02:44:33;;;;;;;15.15;8.15;;;5.80;77.00;;;6.10;nan;100612.19;5029490;28;20214;-72
2022/03/13 02:47:09;;;;;;;15.10;7.65;;;5.80;77.50;;;6.08;nan;100614.84;5011421;28;20234;-71
2022/03/13 02:49:36;;;;;;;11.38;6.80;;;5.80;76.70;;;6.03;nan;100603.06;4993592;28;20706;-71
2022/03/13 02:52:05;;;;;;;8.88;4.60;;;5.70;76.80;;;6.05;nan;100614.16;5022320;28;20267;-71
2022/03/13 02:54:33;;;;;;;11.98;5.95;;;5.70;76.60;;;5.97;nan;100612.00;5013501;28;20221;-71
2022/03/13 02:57:01;;;;;;;15.35;8.45;;;5.70;76.50;;;5.98;nan;100605.91;5029619;28;20206;-72
2022/03/13 02:59:29;;;;;;;12.77;7.50;;;5.70;76.90;;;5.93;nan;100615.66;4996640;28;20616;-72
2022/03/13 03:01:56;;;;;;;12.90;8.32;;;5.60;76.80;;;5.92;nan;100602.81;5030285;28;20209;-73
2022/03/13 03:04:24;;;;;;;13.55;9.18;;;5.70;77.10;;;5.66;nan;100600.72;5011509;28;20214;-71
2022/03/13 03:06:59;;;;;;;14.00;7.75;;;5.40;78.20;;;5.69;nan;100605.72;5013535;28;20481;-71
2022/03/13 03:09:31;;;;;;;12.15;7.10;;;5.40;77.90;;;5.67;nan;100608.41;5016001;28;20225;-72
2022/03/13 03:12:01;;;;;;;11.73;6.28;;;5.30;76.90;;;5.70;nan;100610.84;5030943;28;20666;-72
2022/03/13 03:14:29;;;;;;;9.00;4.65;;;5.40;77.10;;;5.70;nan;100616.00;4999937;28;20206;-72
2022/03/13 03:16:57;;;;;;;10.32;5.85;;;5.40;77.60;;;5.73;nan;100612.44;5009858;28;20580;-72
2022/03/13 03:19:26;;;;;;;10.82;6.60;;;5.40;79.10;;;5.67;nan;100613.56;5009813;28;20234;-72
2022/03/13 03:21:53;;;;;;;9.10;5.53;;;5.40;81.70;;;5.57;nan;100614.13;5012923;28;20622;-71
2022/03/13 03:24:25;;;;;;;10.13;5.45;;;5.40;83.10;;;5.59;nan;100615.72;5013977;28;20376;-71
2022/03/13 03:26:56;;;;;;;12.05;7.13;;;5.40;83.90;;;5.56;nan;100612.47;5012532;28;20237;-71
2022/03/13 03:29:28;;;;;;;10.75;5.97;;;5.30;84.20;;;5.54;nan;100616.91;5012542;28;20218;-71
2022/03/13 03:31:56;;;;;;;11.18;6.50;;;5.30;84.50;;;5.47;nan;100616.38;5028605;28;20209;-71
2022/03/13 03:34:26;;;;;;;12.32;6.15;;;5.20;84.80;;;5.47;nan;100609.41;5029433;28;20212;-71
2022/03/13 03:37:00;;;;;;;12.02;6.65;;;5.30;85.30;;;5.45;nan;100613.03;5012190;28;20237;-71
2022/03/13 03:39:31;;;;;;;13.48;7.80;;;5.20;85.80;;;5.33;nan;100608.44;5029843;28;20229;-72
2022/03/13 03:42:00;;;;;;;12.57;6.82;;;5.10;86.20;;;5.32;nan;100617.16;5012845;28;20209;-71
2022/03/13 03:44:27;;;;;;;8.65;5.50;;;5.10;86.50;;;5.24;nan;100617.50;5010117;28;20215;-71
2022/03/13 03:46:55;;;;;;;9.27;4.25;;;5.00;87.30;;;5.26;nan;100622.63;4977188;28;20229;-71
2022/03/13 03:49:23;;;;;;;9.68;6.05;;;5.00;87.40;;;5.27;nan;100614.78;5013174;28;20227;-72
2022/03/13 03:51:50;;;;;;;8.75;4.82;;;5.00;87.40;;;5.26;nan;100607.91;5012208;28;20206;-72
2022/03/13 03:54:17;;;;;;;11.13;6.07;;;5.00;87.70;;;5.23;nan;100609.84;5028971;28;20202;-72
2022/03/13 03:56:44;;;;;;;6.65;4.30;;;5.00;88.10;;;5.19;nan;100605.75;5012137;28;20579;-71
2022/03/13 03:59:11;;;;;;;13.23;6.70;;;5.00;88.60;;;5.20;nan;100605.66;5007751;28;20231;-72
2022/03/13 04:01:41;;;;;;;13.65;7.10;;;5.00;88.40;;;5.20;nan;100608.25;4993370;28;20633;-69
2022/03/13 04:04:14;;;;;;;14.45;7.40;;;5.00;87.80;;;5.15;nan;100604.22;5033148;28;20197;-71
2022/03/13 04:06:41;;;;;;;15.10;8.15;;;4.90;88.50;;;4.94;nan;100602.69;5032177;28;20225;-71
2022/03/13 04:09:10;;;;;;;10.43;6.50;;;4.70;90.10;;;4.98;nan;100607.66;5050750;28;20222;-71
2022/03/13 04:11:38;;;;;;;12.48;6.88;;;4.70;90.30;;;4.97;nan;100605.13;5025503;28;20209;-72
2022/03/13 04:14:05;;;;;;;12.30;7.35;;;4.70;90.20;;;4.93;nan;100609.63;5007031;28;20714;-71
2022/03/13 04:16:33;;;;;;;10.25;6.72;;;4.70;90.30;;;4.80;nan;100603.38;5016187;28;20209;-71
2022/03/13 04:19:00;;;;;;;11.88;7.40;;;4.60;90.90;;;4.88;nan;100592.63;5033494;28;20225;-71
2022/03/13 04:21:27;;;;;;;15.00;7.70;;;4.60;90.90;;;4.80;nan;100594.75;5016521;28;20202;-71
2022/03/13 04:23:54;;;;;;;12.05;7.28;;;4.60;91.00;;;4.80;nan;100607.69;5016664;28;20202;-71
2022/03/13 04:26:24;;;;;;;16.50;8.80;;;4.60;90.80;;;4.70;nan;100604.72;5015963;28;20580;-71
2022/03/13 04:28:51;;;;;;;16.17;8.07;;;4.50;91.40;;;4.65;nan;100607.53;5040839;28;20221;-71
2022/03/13 04:31:19;;;;;;;10.93;7.70;;;4.50;92.10;;;4.75;nan;100600.16;5054850;28;20201;-72
2022/03/13 04:33:47;;;;;;;14.35;7.60;;;4.60;92.10;;;4.65;nan;100598.94;5034795;28;20210;-71
2022/03/13 04:36:17;;;;;;;11.43;6.30;;;4.50;92.00;;;4.68;nan;100601.38;5047943;28;20201;-71
2022/03/13 04:38:44;;;;;;;10.57;5.95;;;4.50;92.10;;;4.65;nan;100601.50;5016694;28;20234;-72
2022/03/13 04:41:11;;;;;;;11.30;7.40;;;4.40;92.40;;;4.62;nan;100602.50;5015172;28;20214;-71
2022/03/13 04:43:38;;;;;;;13.75;7.40;;;4.40;92.50;;;4.65;nan;100604.09;5016494;28;20198;-72
2022/03/13 04:46:05;;;;;;;14.55;7.15;;;4.40;91.70;;;4.70;nan;100608.16;4995261;28;20249;-71
2022/03/13 04:48:34;;;;;;;12.27;6.93;;;4.40;91.70;;;4.78;nan;100609.50;4995679;28;20230;-72
2022/03/13 04:51:02;;;;;;;10.30;6.18;;;4.50;91.30;;;4.80;nan;100612.84;4996232;28;20207;-71
2022/03/13 04:53:30;;;;;;;11.45;6.60;;;4.60;91.50;;;4.83;nan;100618.75;4999427;28;20191;-72
2022/03/13 04:55:57;;;;;;;10.55;5.18;;;4.50;91.30;;;4.82;nan;100627.38;5010512;28;20203;-71
2022/03/13 04:58:24;;;;;;;13.75;7.15;;;4.60;91.20;;;4.80;nan;100618.88;4994711;28;20245;-71
2022/03/13 05:00:52;;;;;;;12.55;6.57;;;4.50;91.30;;;4.83;nan;100618.75;5003949;28;20214;-72
2022/03/13 05:03:20;;;;;;;8.57;5.20;;;4.60;91.20;;;4.81;nan;100627.47;5031523;28;20216;-71
2022/03/13 05:05:47;;;;;;;9.80;6.10;;;4.60;91.40;;;4.79;nan;100627.56;5014325;28;20210;-72
2022/03/13 05:08:15;;;;;;;11.43;6.07;;;4.60;91.50;;;4.80;nan;100623.19;5032531;28;20291;-71
2022/03/13 05:10:44;;;;;;;5.88;4.00;;;4.50;91.30;;;4.80;nan;100633.53;4998200;28;20249;-72
2022/03/13 05:13:14;;;;;;;7.60;5.25;;;4.60;91.50;;;4.76;nan;100639.75;4998644;28;20201;-72
2022/03/13 05:15:43;;;;;;;7.97;5.50;;;4.50;91.70;;;4.73;nan;100633.84;5032350;28;20217;-72
2022/03/13 05:18:10;;;;;;;9.40;4.70;;;4.60;91.50;;;4.75;nan;100643.28;5032422;28;20658;-72
2022/03/13 05:20:37;;;;;;;13.38;6.55;;;4.50;91.80;;;4.69;nan;100637.47;5016688;28;20229;-72
2022/03/13 05:23:07;;;;;;;11.45;6.53;;;4.50;91.90;;;4.70;nan;100636.59;5032937;28;20544;-71
2022/03/13 05:25:36;;;;;;;8.95;4.55;;;4.50;91.90;;;4.67;nan;100652.22;4998481;28;20226;-71
2022/03/13 05:28:05;;;;;;;7.57;4.53;;;4.50;92.20;;;4.63;nan;100644.69;5012965;28;20221;-72
2022/03/13 05:30:32;;;;;;;10.75;5.13;;;4.40;92.50;;;4.61;nan;100656.84;5013988;28;20233;-71
2022/03/13 05:32:59;;;;;;;6.63;4.60;;;4.40;93.00;;;4.53;nan;100652.06;5012789;28;20198;-72
2022/03/13 05:35:27;;;;;;;12.05;6.85;;;4.40;93.40;;;4.54;nan;100656.28;5013640;28;20731;-71
2022/03/13 05:37:54;;;;;;;12.60;6.78;;;4.30;93.60;;;4.46;nan;100654.97;5013785;28;20198;-72
2022/03/13 05:40:23;;;;;;;18.70;9.15;;;4.30;93.70;;;4.43;nan;100655.94;5014992;28;20237;-72
2022/03/13 05:42:58;;;;;;;12.13;7.18;;;4.20;93.90;;;4.38;nan;100660.50;5014681;28;20682;-71
2022/03/13 05:45:28;;;;;;;13.32;7.00;;;4.20;93.80;;;4.35;nan;100663.22;5011788;28;20600;-72
2022/03/13 05:48:06;;;;;;;9.70;6.55;;;4.10;93.70;;;4.42;nan;100666.38;5015901;28;20248;-72
2022/03/13 05:50:33;;;;;;;12.07;7.03;;;4.20;93.40;;;4.45;nan;100667.03;5033843;28;20732;-71
2022/03/13 05:53:01;;;;;;;17.13;8.35;;;4.20;93.40;;;4.39;nan;100675.09;5034699;28;20209;-72
2022/03/13 05:55:28;;;;;;;12.45;7.97;;;4.20;94.10;;;4.51;nan;100669.38;5010653;28;20202;-72
2022/03/13 05:57:57;;;;;;;12.05;7.45;;;4.30;93.70;;;4.40;nan;100669.03;5032227;28;20721;-71
2022/03/13 06:00:26;;;;;;;15.55;8.15;;;4.40;93.40;;;4.61;nan;100680.94;5027105;23;20234;-70
2022/03/13 06:02:54;;;;;;;15.60;6.95;;;4.50;93.20;;;4.79;nan;100681.84;5030904;28;20209;-70
2022/03/13 06:05:22;;;;;;;9.23;5.57;;;4.60;92.80;;;4.89;nan;100679.63;5014001;28;20260;-69
2022/03/13 06:07:50;;;;;;;13.07;6.93;;;4.80;92.30;;;5.10;nan;100694.97;5023509;28;20725;-70
2022/03/13 06:10:21;;;;;;;8.18;6.00;;;4.90;91.80;;;5.35;nan;100703.19;5013826;28;20218;-68
2022/03/13 06:12:48;;;;;;;9.25;5.90;;;5.20;91.00;;;5.59;nan;100703.72;5012534;28;20218;-68
2022/03/13 06:15:17;;;;;;;13.10;6.82;;;5.50;89.80;;;5.94;nan;100720.09;5030711;28;20218;-68
2022/03/13 06:17:47;;;;;;;9.60;6.50;;;5.90;86.60;;;6.34;nan;100713.66;4996327;28;20213;-68
2022/03/13 06:20:16;;;;;;;12.85;7.30;;;6.50;83.50;;;6.82;nan;100717.03;5026093;28;20226;-68
2022/03/13 06:22:46;;;;;;;12.57;7.03;;;7.00;80.20;;;7.30;nan;100710.88;5014094;28;20678;-68
2022/03/13 06:25:15;;;;;;;14.15;8.38;;;7.60;76.10;;;7.45;nan;100709.16;5012383;28;20206;-68
2022/03/13 06:27:44;;;;;;;12.02;6.88;;;7.90;73.30;;;7.90;nan;100710.81;5012130;28;20733;-68
2022/03/13 06:30:15;;;;;;;13.35;8.52;;;8.20;71.80;;;7.94;nan;100712.28;5011178;28;20222;-68
2022/03/13 06:32:46;;;;;;;12.00;8.57;;;8.50;68.70;;;8.17;nan;100711.75;5006339;28;20280;-68
2022/03/13 06:35:15;;;;;;;11.93;7.53;;;8.70;68.00;;;8.39;nan;100709.56;5006311;28;20710;-69
2022/03/13 06:37:43;;;;;;;13.07;8.50;;;8.90;66.60;;;9.19;nan;100715.66;5030560;28;20213;-68
2022/03/13 06:40:18;;;;;;;11.70;7.63;;;9.60;65.40;;;9.74;nan;100709.41;5013867;28;20234;-68
2022/03/13 06:42:46;;;;;;;12.57;8.53;;;10.20;62.90;;;10.16;nan;100711.72;5014715;28;20608;-68
2022/03/13 06:45:13;;;;;;;14.73;9.10;;;10.70;62.80;;;10.77;nan;100711.72;5010414;28;21199;-69
2022/03/13 06:47:44;;;;;;;15.07;9.00;;;11.50;59.40;;;11.35;nan;100707.50;5013283;28;20726;-68
2022/03/13 06:50:17;;;;;;;13.90;7.87;;;12.10;56.80;;;12.06;nan;100720.38;5017060;28;20656;-67
2022/03/13 06:52:46;;;;;;;13.57;8.20;;;12.80;55.00;;;12.43;nan;100724.47;5030596;28;20702;-69
2022/03/13 06:55:14;;;;;;;16.00;8.57;;;13.40;52.80;;;13.02;nan;100732.81;5013621;28;20628;-69
2022/03/13 06:57:43;;;;;;;13.40;8.47;;;13.80;51.00;;;13.62;nan;100733.09;5028815;28;20628;-69
2022/03/13 07:00:12;;;;;;;13.07;8.10;;;14.50;48.80;;;14.12;nan;100741.94;5028414;28;21350;-71
2022/03/13 07:02:43;;;;;;;13.93;8.50;;;15.10;47.20;;;14.46;nan;100742.56;5010044;28;21022;-69
2022/03/13 07:05:11;;;;;;;15.37;9.07;;;15.50;45.70;;;14.84;nan;100740.06;5029848;28;20629;-71
2022/03/13 07:07:38;;;;;;;13.30;8.77;;;15.80;45.00;;;15.05;nan;100737.31;4995232;28;20659;-71
2022/03/13 07:10:09;;;;;;;18.33;8.77;;;16.00;44.30;;;15.18;nan;100743.97;5030991;28;20655;-71
2022/03/13 07:12:36;;;;;;;16.73;9.87;;;16.00;44.40;;;15.65;nan;100734.47;5013158;28;20628;-71
2022/03/13 07:15:08;;;;;;;15.10;10.60;;;16.50;43.70;;;15.16;nan;100743.28;5011583;28;20633;-71
2022/03/13 07:17:36;;;;;;;15.23;10.10;;;16.20;43.90;;;15.44;nan;100737.25;5030632;28;20639;-70
2022/03/13 07:20:05;;;;;;;14.80;9.00;;;16.20;43.80;;;15.98;nan;100738.41;5038747;28;20659;-70
2022/03/13 07:22:32;;;;;;;15.07;9.50;;;16.60;43.10;;;16.21;nan;100740.56;5031330;28;20698;-69
2022/03/13 07:25:00;;;;;;;17.83;9.57;;;16.90;42.50;;;16.45;nan;100737.44;5029910;28;20636;-70
2022/03/13 07:27:27;;;;;;;17.93;10.70;;;17.00;42.60;;;16.94;nan;100737.06;5012451;28;20632;-69
2022/03/13 07:29:54;;;;;;;15.70;10.33;;;17.40;42.70;;;17.40;nan;100735.22;5027931;28;20671;-72
2022/03/13 07:32:21;;;;;;;18.30;11.27;;;17.80;41.90;;;17.20;nan;100744.25;5005335;28;20620;-69
2022/03/13 07:34:48;;;;;;;16.27;9.90;;;17.70;41.80;;;17.64;nan;100743.38;5007901;28;20632;-70
2022/03/13 07:37:15;;;;;;;16.10;10.40;;;18.00;41.60;;;17.95;nan;100736.69;5010549;28;21247;-70
2022/03/13 07:39:47;;;;;;;17.47;10.50;;;18.40;41.00;;;18.38;nan;100744.50;5011864;28;20730;-69
2022/03/13 07:42:16;;;;;;;15.13;10.40;;;18.80;40.90;;;18.62;nan;100745.63;5017216;28;20636;-69
2022/03/13 07:44:44;;;;;;;17.23;10.63;;;19.20;40.10;;;19.00;nan;100742.47;5029410;28;20629;-66
2022/03/13 07:47:11;;;;;;;15.30;10.57;;;19.60;39.20;;;19.31;nan;100748.81;5011250;28;20632;-71
2022/03/13 07:49:38;;;;;;;18.27;11.13;;;19.90;38.40;;;19.52;nan;100738.63;5014805;28;20748;-70
2022/03/13 07:52:06;;;;;;;15.80;11.37;;;20.10;38.20;;;19.54;nan;100739.28;5012534;28;20669;-70
2022/03/13 07:54:33;;;;;;;18.90;10.63;;;20.10;37.70;;;19.70;nan;100741.91;5030414;28;20624;-69
2022/03/13 07:57:01;;;;;;;17.27;10.80;;;20.10;37.40;;;20.29;nan;100739.88;5033868;28;20635;-70
2022/03/13 07:59:28;;;;;;;15.80;11.20;;;20.80;37.10;;;20.88;nan;100736.63;5031092;28;20671;-69
2022/03/13 08:01:55;;;;;;;18.80;12.03;;;21.30;36.30;;;21.74;nan;100737.22;5033052;28;20616;-70
2022/03/13 08:04:24;;;;;;;20.50;11.90;;;22.20;35.70;;;22.68;nan;100744.59;4999642;28;21390;-69
2022/03/13 08:06:51;;;;;;;15.77;10.80;;;23.10;34.60;;;23.53;nan;100740.22;5029031;28;20633;-70
2022/03/13 08:09:18;;;;;;;16.40;11.83;;;24.20;33.70;;;24.09;nan;100731.25;5033941;28;20667;-69
2022/03/13 08:11:45;;;;;;;15.73;11.47;;;24.90;33.00;;;24.76;nan;100738.59;5032043;28;20640;-70
2022/03/13 08:14:13;;;;;;;14.70;11.70;;;25.40;32.40;;;24.99;nan;100728.41;5011891;28;20633;-70
2022/03/13 08:16:46;;;;;;;20.87;13.03;;;25.80;31.90;;;25.10;nan;100719.81;4981485;28;20628;-73
2022/03/13 08:19:16;;;;;;;15.40;10.90;;;25.80;32.10;;;25.38;nan;100726.63;5031763;28;20655;-69
2022/03/13 08:21:43;;;;;;;19.30;12.80;;;26.10;32.00;;;25.62;nan;100721.78;5030004;28;20629;-68
2022/03/13 08:24:17;;;;;;;15.63;11.97;;;26.40;31.60;;;25.23;nan;100712.66;5029096;28;20621;-72
2022/03/13 08:26:45;;;;;;;16.57;11.20;;;26.30;31.70;;;24.97;nan;100715.28;5015179;28;20637;-70
2022/03/13 08:29:13;;;;;;;19.00;11.90;;;26.20;31.20;;;25.23;nan;100719.84;5019917;28;20692;-71
2022/03/13 08:31:42;;;;;;;15.60;11.87;;;26.20;31.60;;;25.99;nan;100724.63;5028325;28;20642;-70
2022/03/13 08:34:09;;;;;;;15.80;10.50;;;26.80;31.50;;;24.77;nan;100718.91;4985166;28;20638;-70
2022/03/13 08:36:47;;;;;;;16.07;11.60;;;27.10;30.80;;;24.23;nan;100711.66;5032236;28;20600;-70
2022/03/13 08:39:14;;;;;;;18.00;11.57;;;26.00;31.30;;;24.20;nan;100713.88;5011239;28;20657;-71
2022/03/13 08:41:41;;;;;;;16.47;11.87;;;26.00;30.80;;;25.65;nan;100714.16;4996831;28;20641;-68
2022/03/13 08:44:09;;;;;;;14.67;11.10;;;27.00;31.30;;;26.69;nan;100718.47;5012384;28;20613;-71
2022/03/13 08:46:38;;;;;;;18.47;11.07;;;28.20;30.40;;;27.71;nan;100722.81;5034820;28;20620;-70
2022/03/13 08:49:08;;;;;;;14.37;12.23;;;29.30;29.90;;;28.22;nan;100715.31;5016138;28;21059;-70
2022/03/13 08:51:35;;;;;;;18.57;13.03;;;30.60;29.50;;;29.60;nan;100730.44;5018166;28;20627;-70
2022/03/13 08:54:02;;;;;;;15.73;12.07;;;31.60;29.30;;;29.99;nan;100729.78;5003516;28;20626;-72
2022/03/13 08:56:32;;;;;;;17.00;12.97;;;32.20;28.70;;;30.03;nan;100725.56;5028504;28;20664;-70
2022/03/13 08:58:59;;;;;;;18.27;13.10;;;32.30;28.40;;;30.75;nan;100723.34;5014857;28;20623;-70
2022/03/13 09:01:26;;;;;;;18.10;12.53;;;33.10;28.40;;;31.48;nan;100726.88;4992509;28;20648;-73
2022/03/13 09:03:54;;;;;;;15.80;13.43;;;34.00;28.10;;;31.38;nan;100729.38;5026999;28;20644;-71
2022/03/13 09:06:24;;;;;;;16.53;14.17;;;34.20;27.70;;;31.58;nan;100718.97;5014799;28;21058;-71
2022/03/13 09:08:57;;;;;;;15.90;13.43;;;34.40;27.40;;;30.50;nan;100716.38;4996959;28;20661;-73
2022/03/13 09:11:27;;;;;;;17.17;13.20;;;33.40;27.60;;;31.56;nan;100725.69;5012593;28;20629;-72
2022/03/13 09:13:54;;;;;;;17.23;13.30;;;34.20;27.30;;;32.46;nan;100716.19;5022890;28;20637;-73
2022/03/13 09:16:26;;;;;;;17.10;13.90;;;35.20;27.10;;;33.20;nan;100717.31;5026624;28;20643;-70
2022/03/13 09:18:53;;;;;;;17.07;13.70;;;36.00;26.90;;;32.47;nan;100703.53;4989894;28;20637;-71
2022/03/13 09:21:23;;;;;;;15.60;12.10;;;36.40;26.60;;;33.52;nan;100715.47;4998302;28;20628;-71
2022/03/13 09:23:54;;;;;;;16.17;13.50;;;36.80;26.40;;;34.09;nan;100720.22;5014736;28;20644;-72
2022/03/13 09:26:24;;;;;;;16.63;13.13;;;37.40;26.20;;;34.45;nan;100716.59;5015542;28;20629;-72
2022/03/13 09:28:51;;;;;;;14.80;12.63;;;37.90;26.10;;;34.64;nan;100706.94;5014505;28;20663;-71
2022/03/13 09:31:18;;;;;;;17.40;11.97;;;38.40;25.70;;;34.88;nan;100715.41;5014928;28;21155;-72
2022/03/13 09:33:46;;;;;;;15.87;13.47;;;38.40;25.80;;;34.67;nan;100714.53;5011920;28;21199;-72
2022/03/13 09:36:13;;;;;;;14.70;12.83;;;38.30;25.60;;;33.47;nan;100709.19;5014136;28;20620;-72
2022/03/13 09:38:40;;;;;;;19.30;13.83;;;37.90;25.60;;;34.36;nan;100716.28;4997790;28;21180;-71
2022/03/13 09:41:07;;;;;;;16.10;13.83;;;38.00;25.60;;;34.28;nan;100718.69;5031154;28;20656;-73
2022/03/13 09:43:36;;;;;;;16.50;14.00;;;37.30;25.70;;;33.89;nan;100710.03;4997167;28;20624;-72
2022/03/13 09:46:05;;;;;;;18.30;13.90;;;36.70;25.70;;;33.49;nan;100710.56;5012504;28;20677;-72
2022/03/13 09:48:36;;;;;;;15.27;12.60;;;36.30;25.90;;;32.48;nan;100702.47;5031479;28;20660;-72
2022/03/13 09:51:05;;;;;;;17.83;13.43;;;35.60;25.80;;;33.64;nan;100701.75;5028537;28;20653;-70
2022/03/13 09:53:37;;;;;;;16.67;14.40;;;36.20;25.90;;;34.78;nan;100699.91;5009429;28;20634;-71
2022/03/13 09:56:05;;;;;;;17.67;15.60;;;37.70;25.70;;;34.53;nan;100699.84;5025495;28;21027;-72
2022/03/13 09:58:32;;;;;;;17.23;14.70;;;38.20;25.60;;;34.38;nan;100702.47;5013843;28;21007;-72
2022/03/13 10:01:00;;;;;;;17.93;14.20;;;38.20;25.50;;;35.24;nan;100711.69;5011089;28;20693;-72
2022/03/13 10:03:28;;;;;;;20.10;16.47;;;38.70;25.40;;;33.29;nan;100696.03;5008218;28;20648;-71
2022/03/13 10:05:56;;;;;;;17.93;13.97;;;38.50;25.30;;;34.08;nan;100702.31;5027940;28;20984;-73
2022/03/13 10:08:31;;;;;;;16.83;14.60;;;38.10;25.40;;;35.56;nan;100709.53;5027222;28;21083;-71
2022/03/13 10:11:02;;;;;;;16.70;13.97;;;39.00;25.30;;;35.83;nan;100709.22;5031875;28;21030;-71
2022/03/13 10:13:46;;;;;;;20.23;15.37;;;39.30;25.30;;;36.30;nan;100704.22;5012713;28;20668;-73
2022/03/13 10:16:35;;;;;;;16.20;14.50;;;40.00;25.20;;;36.85;nan;100697.69;5017603;28;20678;-72
2022/03/13 10:19:19;;;;;;;17.17;13.80;;;40.50;25.10;;;36.71;nan;100693.19;5033191;23;20640;-71
2022/03/13 10:22:19;;;;;;;20.73;14.83;;;40.20;25.10;;;36.97;nan;100684.59;5011312;28;21255;-71
2022/03/13 10:24:49;;;;;;;15.30;13.70;;;40.20;25.00;;;36.87;nan;100684.63;4988621;28;20641;-71
2022/03/13 10:27:20;;;;;;;18.07;16.27;;;40.20;25.10;;;32.64;nan;100675.41;5015047;28;20632;-73
2022/03/13 10:29:48;;;;;;;17.60;15.27;;;38.30;24.90;;;32.11;nan;100662.56;4997468;28;21136;-72
2022/03/13 10:32:15;;;;;;;18.67;16.13;;;36.60;25.30;;;31.93;nan;100668.22;4999398;28;20644;-71
2022/03/13 10:35:01;;;;;;;17.57;14.40;;;35.40;25.80;;;32.45;nan;100671.38;5035999;23;21120;-72